createdAt,value
2023-04-18T00:01:15.012Z,87.91
2023-04-18T00:04:18.512Z,90.36
2023-04-18T00:07:21.697Z,92.17
2023-04-18T00:10:24.238Z,89.84
2023-04-18T00:13:28.378Z,89.99
2023-04-18T00:16:33.034Z,91.51
2023-04-18T00:19:36.569Z,91.96
2023-04-18T00:22:46.458Z,90.53
2023-04-18T00:25:48.946Z,90.43
2023-04-18T00:28:51.418Z,90.87
2023-04-18T00:31:53.633Z,90.86
2023-04-18T00:34:56.727Z,90.55
2023-04-18T00:37:58.846Z,90.28
2023-04-18T00:41:01.292Z,89.83
2023-04-18T00:44:03.535Z,88.99
2023-04-18T00:47:06.009Z,89.07
2023-04-18T00:50:09.952Z,89.72
2023-04-18T00:53:13.474Z,88.31
2023-04-18T00:56:16.152Z,89.64
2023-04-18T00:59:18.793Z,89.48
2023-04-18T01:02:21.324Z,88.85
2023-04-18T01:05:23.924Z,89.82
2023-04-18T01:08:27.762Z,90.60
2023-04-18T01:11:32.735Z,90.22
2023-04-18T01:14:34.936Z,90.30
2023-04-18T01:17:39.678Z,90.45
2023-04-18T01:20:46.560Z,90.19
2023-04-18T01:23:49.166Z,90.09
2023-04-18T01:26:51.595Z,90.60
2023-04-18T01:29:54.159Z,89.11
2023-04-18T01:32:56.388Z,90.91
2023-04-18T01:36:01.541Z,90.70
2023-04-18T01:39:06.440Z,90.86
2023-04-18T01:42:08.840Z,91.77
2023-04-18T01:45:13.251Z,91.61
2023-04-18T01:48:15.955Z,93.55
2023-04-18T01:51:18.140Z,91.19
2023-04-18T01:54:20.573Z,90.87
2023-04-18T01:57:22.848Z,90.18
2023-04-18T02:00:25.498Z,92.03
2023-04-18T02:03:27.658Z,90.11
2023-04-18T02:06:30.795Z,89.36
2023-04-18T02:09:34.543Z,89.14
2023-04-18T02:12:36.972Z,88.71
2023-04-18T02:15:39.151Z,88.96
2023-04-18T02:18:43.643Z,88.72
2023-04-18T02:21:45.906Z,90.61
2023-04-18T02:24:49.917Z,88.55
2023-04-18T02:27:52.172Z,88.96
2023-04-18T02:30:54.587Z,88.95
2023-04-18T02:33:56.748Z,87.69
2023-04-18T02:36:59.285Z,87.15
2023-04-18T02:40:01.480Z,87.71
2023-04-18T02:43:04.673Z,85.57
2023-04-18T02:46:07.297Z,85.95
2023-04-18T02:49:10.327Z,87.15
2023-04-18T02:52:12.532Z,86.65
2023-04-18T02:55:15.192Z,86.28
2023-04-18T02:58:17.996Z,86.95
2023-04-18T03:01:21.735Z,89.26
2023-04-18T03:04:24.616Z,90.39
2023-04-18T03:07:27.655Z,94.14
2023-04-18T03:10:30.685Z,95.68
2023-04-18T03:13:33.895Z,98.91
2023-04-18T03:16:36.687Z,98.81
2023-04-18T03:19:39.662Z,98.48
2023-04-18T03:22:41.999Z,97.80
2023-04-18T03:25:45.117Z,99.02
2023-04-18T03:28:47.339Z,97.00
2023-04-18T03:31:51.018Z,98.08
2023-04-18T03:34:53.266Z,98.44
2023-04-18T03:37:56.970Z,98.58
2023-04-18T03:40:59.536Z,97.85
2023-04-18T03:44:03.011Z,97.09
2023-04-18T03:47:08.042Z,97.64
2023-04-18T03:50:11.148Z,95.17
2023-04-18T03:53:14.429Z,94.91
2023-04-18T03:56:17.171Z,96.13
2023-04-18T03:59:20.164Z,94.95
2023-04-18T04:02:23.710Z,94.47
2023-04-18T04:05:26.448Z,94.57
2023-04-18T04:08:28.671Z,95.62
2023-04-18T04:11:31.576Z,94.04
2023-04-18T04:14:33.982Z,94.10
2023-04-18T04:17:36.937Z,94.50
2023-04-18T04:20:39.163Z,96.30
2023-04-18T04:23:42.893Z,97.14
2023-04-18T04:26:46.781Z,96.23
2023-04-18T04:29:49.474Z,94.67
2023-04-18T04:32:53.589Z,94.80
2023-04-18T04:35:56.623Z,95.91
2023-04-18T04:39:04.579Z,95.21
2023-04-18T04:42:09.606Z,95.08
2023-04-18T04:45:13.796Z,93.88
2023-04-18T04:48:16.712Z,93.90
2023-04-18T04:51:18.897Z,95.77
2023-04-18T04:54:21.462Z,96.25
2023-04-18T04:57:23.917Z,94.37
2023-04-18T05:00:26.945Z,96.50
2023-04-18T05:03:29.190Z,96.63
2023-04-18T05:06:32.853Z,95.85
2023-04-18T05:09:35.092Z,97.20
2023-04-18T05:12:37.523Z,95.90
2023-04-18T05:15:40.008Z,97.62
2023-04-18T05:18:42.731Z,98.14
2023-04-18T05:21:44.869Z,98.32
2023-04-18T05:24:47.283Z,98.18
2023-04-18T05:27:50.531Z,98.40
2023-04-18T05:30:53.325Z,99.29
2023-04-18T05:33:55.794Z,99.70
2023-04-18T05:36:58.456Z,99.02
2023-04-18T05:40:01.119Z,98.93
2023-04-18T05:43:03.729Z,98.37
2023-04-18T05:46:07.000Z,98.58
2023-04-18T05:49:10.309Z,96.54
2023-04-18T05:52:12.643Z,95.80
2023-04-18T05:55:15.380Z,95.45
2023-04-18T05:58:17.548Z,93.88
2023-04-18T06:01:20.014Z,93.18
2023-04-18T06:04:22.684Z,93.23
2023-04-18T06:07:25.553Z,90.56
2023-04-18T06:10:28.061Z,91.22
2023-04-18T06:13:30.392Z,89.46
2023-04-18T06:16:33.066Z,88.62
2023-04-18T06:19:35.631Z,89.53
2023-04-18T06:22:38.096Z,89.66
2023-04-18T06:25:43.511Z,87.93
2023-04-18T06:28:46.371Z,88.51
2023-04-18T06:31:50.408Z,85.83
2023-04-18T06:34:53.101Z,86.18
2023-04-18T06:37:55.883Z,85.23
2023-04-18T06:40:58.379Z,83.26
2023-04-18T06:44:04.051Z,82.97
2023-04-18T06:47:07.355Z,83.04
2023-04-18T06:50:10.884Z,82.20
2023-04-18T06:53:14.439Z,83.07
2023-04-18T06:56:16.552Z,82.38
2023-04-18T06:59:21.338Z,80.68
2023-04-18T07:02:23.754Z,78.16
2023-04-18T07:05:26.307Z,79.96
2023-04-18T07:08:28.754Z,77.51
2023-04-18T07:11:31.337Z,74.93
2023-04-18T07:14:34.321Z,74.68
2023-04-18T07:17:37.083Z,76.79
2023-04-18T07:20:40.237Z,76.78
2023-04-18T07:23:42.852Z,75.43
2023-04-18T07:26:45.647Z,75.43
2023-04-18T07:29:48.000Z,75.51
2023-04-18T07:32:50.457Z,75.19
2023-04-18T07:35:53.055Z,74.07
2023-04-18T07:38:55.269Z,73.15
2023-04-18T07:41:57.908Z,74.95
2023-04-18T07:45:00.053Z,72.03
2023-04-18T07:48:02.616Z,71.83
2023-04-18T07:51:04.984Z,72.15
2023-04-18T07:54:07.494Z,71.76
2023-04-18T07:57:10.802Z,71.69
2023-04-18T08:00:15.754Z,71.76
2023-04-18T08:03:18.438Z,71.16
2023-04-18T08:06:21.471Z,70.17
2023-04-18T08:09:25.010Z,69.95
2023-04-18T08:12:27.250Z,69.72
2023-04-18T08:15:32.267Z,70.63
2023-04-18T08:18:35.746Z,68.08
2023-04-18T08:21:39.233Z,67.36
2023-04-18T08:24:46.424Z,62.95
2023-04-18T08:27:53.730Z,60.74
2023-04-18T08:30:56.607Z,61.51
2023-04-18T08:33:59.138Z,59.93
2023-04-18T08:37:01.392Z,58.10
2023-04-18T08:40:05.523Z,56.52
2023-04-18T08:43:12.549Z,58.40
2023-04-18T08:46:15.131Z,57.51
2023-04-18T08:49:17.786Z,59.81
2023-04-18T08:52:21.592Z,60.30
2023-04-18T08:55:23.876Z,57.43
2023-04-18T08:58:33.655Z,57.93
2023-04-18T09:01:57.287Z,55.65
2023-04-18T09:04:59.877Z,51.99
2023-04-18T09:08:21.970Z,50.01
2023-04-18T09:11:29.914Z,49.31
2023-04-18T09:14:32.651Z,49.28
2023-04-18T09:17:38.039Z,49.23
2023-04-18T09:20:42.536Z,45.01
2023-04-18T09:23:47.475Z,47.78
2023-04-18T09:26:51.291Z,48.81
2023-04-18T09:29:56.544Z,49.82
2023-04-18T09:33:01.429Z,51.73
2023-04-18T09:36:21.424Z,51.98
2023-04-18T09:39:28.408Z,51.38
2023-04-18T09:42:36.214Z,51.11
2023-04-18T09:45:39.137Z,49.72
2023-04-18T09:48:41.880Z,51.05
2023-04-18T09:51:44.800Z,50.32
2023-04-18T09:54:55.785Z,49.21
2023-04-18T09:58:00.728Z,48.97
2023-04-18T10:01:04.555Z,49.88
2023-04-18T10:04:07.974Z,50.78
2023-04-18T10:07:11.307Z,50.58
2023-04-18T10:10:14.588Z,49.85
2023-04-18T10:13:19.276Z,52.32
2023-04-18T10:16:22.079Z,50.41
2023-04-18T10:19:26.432Z,51.04
2023-04-18T10:22:29.164Z,51.02
2023-04-18T10:25:41.280Z,51.46
2023-04-18T10:28:58.010Z,51.53
2023-04-18T10:32:06.425Z,53.85
2023-04-18T10:35:10.864Z,55.10
2023-04-18T10:38:23.534Z,53.55
2023-04-18T10:41:26.187Z,53.77
2023-04-18T10:44:28.500Z,52.53
2023-04-18T10:47:31.252Z,52.41
2023-04-18T10:50:34.907Z,52.77
2023-04-18T10:53:37.375Z,52.06
2023-04-18T10:56:39.787Z,50.59
2023-04-18T10:59:44.430Z,47.33
2023-04-18T11:02:53.283Z,51.18
2023-04-18T11:06:01.804Z,50.37
2023-04-18T11:09:12.116Z,51.56
2023-04-18T11:12:14.669Z,51.18
2023-04-18T11:15:22.519Z,49.66
2023-04-18T11:18:25.483Z,48.93
2023-04-18T11:21:30.683Z,50.75
2023-04-18T11:24:34.232Z,46.22
2023-04-18T11:27:36.502Z,48.63
2023-04-18T11:30:40.919Z,48.24
2023-04-18T11:33:46.278Z,47.15
2023-04-18T11:36:52.581Z,48.36
2023-04-18T11:39:54.820Z,49.43
2023-04-18T11:43:01.361Z,48.09
2023-04-18T11:46:03.641Z,48.11
2023-04-18T11:49:06.172Z,49.55
2023-04-18T11:52:13.383Z,51.45
2023-04-18T11:55:18.652Z,50.75
2023-04-18T11:58:30.705Z,46.94
2023-04-18T12:01:35.238Z,45.97
2023-04-18T12:05:11.961Z,47.98
2023-04-18T12:08:19.685Z,48.84
2023-04-18T12:11:22.148Z,48.28
2023-04-18T12:14:24.290Z,48.15
2023-04-18T12:17:28.160Z,48.45
2023-04-18T12:20:40.306Z,48.81
2023-04-18T12:23:45.811Z,51.05
2023-04-18T12:26:48.701Z,49.73
2023-04-18T12:29:51.298Z,50.30
2023-04-18T12:32:56.958Z,49.03
2023-04-18T12:35:59.526Z,49.66
2023-04-18T12:39:02.222Z,47.51
2023-04-18T12:42:04.785Z,44.47
2023-04-18T12:45:11.592Z,44.18
2023-04-18T12:48:14.106Z,44.72
2023-04-18T12:51:16.321Z,44.85
2023-04-18T12:54:18.821Z,47.42
2023-04-18T12:57:20.998Z,44.21
2023-04-18T13:00:26.557Z,43.17
2023-04-18T13:03:28.945Z,44.12
2023-04-18T13:06:31.498Z,44.86
2023-04-18T13:09:34.039Z,44.04
2023-04-18T13:12:37.265Z,44.94
2023-04-18T13:15:39.556Z,44.93
2023-04-18T13:18:41.962Z,43.17
2023-04-18T13:21:44.245Z,41.59
2023-04-18T13:24:47.250Z,41.34
2023-04-18T13:27:52.188Z,41.97
2023-04-18T13:30:54.573Z,40.70
2023-04-18T13:33:56.743Z,39.28
2023-04-18T13:37:02.173Z,38.01
2023-04-18T13:40:06.379Z,38.16
2023-04-18T13:43:10.924Z,38.48
2023-04-18T13:46:13.096Z,39.40
2023-04-18T13:49:15.821Z,40.95
2023-04-18T13:52:18.180Z,38.11
2023-04-18T13:55:21.025Z,37.25
2023-04-18T13:58:23.177Z,38.96
2023-04-18T14:01:25.807Z,38.79
2023-04-18T14:04:28.532Z,37.17
2023-04-18T14:07:31.101Z,38.75
2023-04-18T14:10:33.593Z,37.95
2023-04-18T14:13:35.884Z,36.42
2023-04-18T14:16:38.376Z,35.37
2023-04-18T14:19:40.502Z,35.09
2023-04-18T14:22:42.915Z,35.08
2023-04-18T14:25:45.147Z,34.93
2023-04-18T14:28:47.859Z,34.63
2023-04-18T14:31:50.288Z,35.08
2023-04-18T14:34:52.772Z,33.18
2023-04-18T14:37:55.158Z,34.28
2023-04-18T14:40:58.582Z,34.87
2023-04-18T14:44:00.925Z,33.90
2023-04-18T14:47:03.445Z,32.99
2023-04-18T14:50:07.466Z,34.03
2023-04-18T14:53:11.157Z,33.97
2023-04-18T14:56:14.695Z,34.75
2023-04-18T14:59:17.305Z,34.46
2023-04-18T15:02:19.993Z,34.88
2023-04-18T15:05:23.807Z,34.08
2023-04-18T15:08:26.080Z,34.54
2023-04-18T15:11:28.485Z,35.17
2023-04-18T15:14:32.731Z,33.38
2023-04-18T15:17:35.906Z,34.12
2023-04-18T15:20:39.506Z,34.52
2023-04-18T15:23:41.975Z,34.96
2023-04-18T15:26:44.132Z,36.18
2023-04-18T15:29:46.941Z,33.74
2023-04-18T15:32:49.216Z,33.93
2023-04-18T15:35:51.691Z,34.57
2023-04-18T15:38:53.801Z,34.33
2023-04-18T15:41:56.523Z,33.33
2023-04-18T15:44:58.719Z,33.34
2023-04-18T15:48:01.175Z,33.57
2023-04-18T15:51:03.989Z,34.78
2023-04-18T15:54:06.554Z,34.74
2023-04-18T15:57:09.864Z,37.20
2023-04-18T16:00:16.284Z,36.37
2023-04-18T16:03:18.977Z,36.88
2023-04-18T16:06:24.159Z,37.04
2023-04-18T16:09:27.027Z,37.68
2023-04-18T16:12:29.323Z,38.53
2023-04-18T16:15:32.004Z,38.80
2023-04-18T16:18:34.265Z,39.35
2023-04-18T16:21:36.742Z,37.69
2023-04-18T16:24:40.453Z,36.67
2023-04-18T16:27:44.722Z,37.01
2023-04-18T16:30:47.285Z,38.08
2023-04-18T16:33:52.474Z,38.16
2023-04-18T16:36:55.642Z,40.23
2023-04-18T16:39:58.235Z,40.79
2023-04-18T16:43:01.960Z,41.81
2023-04-18T16:46:04.692Z,40.49
2023-04-18T16:49:06.976Z,41.78
2023-04-18T16:52:09.582Z,42.84
2023-04-18T16:55:11.741Z,42.11
2023-04-18T16:58:14.175Z,42.95
2023-04-18T17:01:16.426Z,43.11
2023-04-18T17:04:19.012Z,44.55
2023-04-18T17:07:21.221Z,41.60
2023-04-18T17:10:23.700Z,41.74
2023-04-18T17:13:27.241Z,41.37
2023-04-18T17:16:30.177Z,41.45
2023-04-18T17:19:32.386Z,41.24
2023-04-18T17:22:34.801Z,41.24
2023-04-18T17:25:37.011Z,42.51
2023-04-18T17:28:39.412Z,42.37
2023-04-18T17:31:41.996Z,42.98
2023-04-18T17:34:44.484Z,42.66
2023-04-18T17:37:47.883Z,43.84
2023-04-18T17:41:01.233Z,43.87
2023-04-18T17:44:04.914Z,43.67
2023-04-18T17:47:07.339Z,43.34
2023-04-18T17:50:10.104Z,43.73
2023-04-18T17:53:12.500Z,44.04
2023-04-18T17:56:14.645Z,43.54
2023-04-18T17:59:17.091Z,45.28
2023-04-18T18:02:20.128Z,45.96
2023-04-18T18:05:22.822Z,46.47
2023-04-18T18:08:25.724Z,46.98
2023-04-18T18:11:28.342Z,47.22
2023-04-18T18:14:30.654Z,46.34
2023-04-18T18:17:33.109Z,46.88
2023-04-18T18:20:35.320Z,51.15
2023-04-18T18:23:37.903Z,50.28
2023-04-18T18:26:40.153Z,48.02
2023-04-18T18:29:42.553Z,46.67
2023-04-18T18:32:44.746Z,46.70
2023-04-18T18:35:47.249Z,46.97
2023-04-18T18:38:49.422Z,47.69
2023-04-18T18:41:52.275Z,47.97
2023-04-18T18:44:54.469Z,48.56
2023-04-18T18:47:57.024Z,49.45
2023-04-18T18:50:59.301Z,49.42
2023-04-18T18:54:01.794Z,50.16
2023-04-18T18:57:04.088Z,50.75
2023-04-18T19:00:10.924Z,50.15
2023-04-18T19:03:13.356Z,50.07
2023-04-18T19:06:16.117Z,52.18
2023-04-18T19:09:18.761Z,53.56
2023-04-18T19:12:21.394Z,53.41
2023-04-18T19:15:24.430Z,51.81
2023-04-18T19:18:27.272Z,54.47
2023-04-18T19:21:29.867Z,52.44
2023-04-18T19:24:32.319Z,51.54
2023-04-18T19:27:34.448Z,50.99
2023-04-18T19:30:36.893Z,48.90
2023-04-18T19:33:39.013Z,48.21
2023-04-18T19:36:41.446Z,48.93
2023-04-18T19:39:43.608Z,49.37
2023-04-18T19:42:46.580Z,49.94
2023-04-18T19:45:50.551Z,50.46
2023-04-18T19:48:53.333Z,50.96
2023-04-18T19:51:55.486Z,49.37
2023-04-18T19:54:57.879Z,48.17
2023-04-18T19:58:00.169Z,49.73
2023-04-18T20:01:05.750Z,47.71
2023-04-18T20:04:08.427Z,47.46
2023-04-18T20:07:10.980Z,48.21
2023-04-18T20:10:13.505Z,49.16
2023-04-18T20:13:15.704Z,47.60
2023-04-18T20:16:18.243Z,47.15
2023-04-18T20:19:20.410Z,46.69
2023-04-18T20:22:25.800Z,47.41
2023-04-18T20:25:27.911Z,46.49
2023-04-18T20:28:31.491Z,46.70
2023-04-18T20:31:33.884Z,46.05
2023-04-18T20:34:36.348Z,46.71
2023-04-18T20:37:39.038Z,46.47
2023-04-18T20:40:45.016Z,45.87
2023-04-18T20:43:47.257Z,46.69
2023-04-18T20:46:49.794Z,45.60
2023-04-18T20:49:51.903Z,45.58
2023-04-18T20:52:55.178Z,47.20
2023-04-18T20:55:57.321Z,48.74
2023-04-18T20:58:59.859Z,51.50
2023-04-18T21:02:02.150Z,50.86
2023-04-18T21:05:05.103Z,49.57
2023-04-18T21:08:07.387Z,50.08
2023-04-18T21:11:09.779Z,51.46
2023-04-18T21:14:11.907Z,50.15
2023-04-18T21:17:17.277Z,50.49
2023-04-18T21:20:19.764Z,50.10
2023-04-18T21:23:25.233Z,48.36
2023-04-18T21:26:27.921Z,48.12
2023-04-18T21:29:30.320Z,47.74
2023-04-18T21:32:32.584Z,50.00
2023-04-18T21:35:35.031Z,48.31
2023-04-18T21:38:37.155Z,48.28
2023-04-18T21:41:39.626Z,51.21
2023-04-18T21:44:41.737Z,49.44
2023-04-18T21:47:44.256Z,50.64
2023-04-18T21:50:46.464Z,49.64
2023-04-18T21:53:48.925Z,49.23
2023-04-18T21:56:51.049Z,48.48
2023-04-18T21:59:55.490Z,49.65
2023-04-18T22:02:57.841Z,50.10
2023-04-18T22:06:01.472Z,49.25
2023-04-18T22:09:05.194Z,50.07
2023-04-18T22:12:08.596Z,49.63
2023-04-18T22:15:11.401Z,49.96
2023-04-18T22:18:14.562Z,50.78
2023-04-18T22:21:16.840Z,50.41
2023-04-18T22:24:19.667Z,51.06
2023-04-18T22:27:21.996Z,49.99
2023-04-18T22:30:24.591Z,50.17
2023-04-18T22:33:26.906Z,50.03
2023-04-18T22:36:29.381Z,51.08
2023-04-18T22:39:31.584Z,50.87
2023-04-18T22:42:34.893Z,50.05
2023-04-18T22:45:38.311Z,50.56
2023-04-18T22:48:40.713Z,50.46
2023-04-18T22:51:43.962Z,50.76
2023-04-18T22:54:46.455Z,50.31
2023-04-18T22:57:48.584Z,51.04
2023-04-18T23:00:51.030Z,51.07
2023-04-18T23:03:53.323Z,49.70
2023-04-18T23:06:56.249Z,49.21
2023-04-18T23:09:58.488Z,49.62
2023-04-18T23:13:01.252Z,49.08
2023-04-18T23:16:03.500Z,49.88
2023-04-18T23:19:05.982Z,50.05
2023-04-18T23:22:08.252Z,50.02
2023-04-18T23:25:10.724Z,50.35
2023-04-18T23:28:13.623Z,49.44
2023-04-18T23:31:16.173Z,47.98
2023-04-18T23:34:18.325Z,47.10
2023-04-18T23:37:20.895Z,46.96
2023-04-18T23:40:23.200Z,47.72
2023-04-18T23:43:25.645Z,48.37
2023-04-18T23:46:27.858Z,48.51
2023-04-18T23:49:30.325Z,47.86
2023-04-18T23:52:32.470Z,48.66
2023-04-18T23:55:34.908Z,48.31
2023-04-18T23:58:37.080Z,47.95
